Time;durP1;ratioP1;P1;durP2;ratioP2;P2;SDS_P1;SDS_P2;PMS_P1;PMS_P2;Temp;Humidity;BMP_temperature;BMP_pressure;BME280_temperature;BME280_humidity;BME280_pressure;Samples;Min_cycle;Max_cycle;Signal;HPM_P1;HPM_P2
2023/06/28 00:03:19;;;;;;;2.80;1.25;;;23.20;58.80;;;;;;10315043;28;20018;-58
2023/06/28 00:08:20;;;;;;;1.67;1.13;;;23.20;58.80;;;;;;10325181;28;20169;-60
2023/06/28 00:13:21;;;;;;;3.10;1.40;;;23.20;58.80;;;;;;10326652;28;20019;-59
2023/06/28 00:18:22;;;;;;;2.20;1.40;;;23.20;58.80;;;;;;10324983;28;20022;-60
2023/06/28 00:23:23;;;;;;;3.17;1.83;;;23.20;58.80;;;;;;10323390;28;20072;-58
2023/06/28 00:28:23;;;;;;;2.65;1.20;;;23.20;58.90;;;;;;10324570;28;20041;-58
2023/06/28 00:33:24;;;;;;;3.03;1.58;;;23.10;58.80;;;;;;10324715;28;20105;-58
2023/06/28 00:38:25;;;;;;;2.20;1.50;;;23.10;58.90;;;;;;10322817;28;20431;-60
2023/06/28 00:43:26;;;;;;;2.03;1.35;;;23.10;58.90;;;;;;10325196;28;20030;-58
2023/06/28 00:48:27;;;;;;;5.25;1.60;;;23.10;58.90;;;;;;10321325;28;20499;-59
2023/06/28 00:53:28;;;;;;;3.13;1.17;;;23.10;59.60;;;;;;10322238;28;20026;-59
2023/06/28 00:58:28;;;;;;;2.28;1.23;;;23.10;59.10;;;;;;10323476;28;20049;-56
2023/06/28 01:03:29;;;;;;;1.98;1.30;;;23.10;59.00;;;;;;10321730;28;20030;-59
2023/06/28 01:08:30;;;;;;;2.92;1.25;;;23.10;59.10;;;;;;10324552;28;20034;-60
2023/06/28 01:13:34;;;;;;;2.63;1.33;;;23.10;59.10;;;;;;10322182;28;20044;-59
2023/06/28 01:18:35;;;;;;;2.25;1.33;;;23.10;59.10;;;;;;10321273;28;20026;-59
2023/06/28 01:23:36;;;;;;;2.28;1.30;;;23.10;59.20;;;;;;10321335;28;20545;-60
2023/06/28 01:28:37;;;;;;;3.30;1.10;;;23.10;59.20;;;;;;10322414;28;20114;-59
2023/06/28 01:33:41;;;;;;;3.45;1.73;;;23.10;59.20;;;;;;10321355;28;20018;-57
2023/06/28 01:38:43;;;;;;;1.60;1.30;;;23.10;59.30;;;;;;10309934;28;20054;-60
2023/06/28 01:43:44;;;;;;;2.85;1.30;;;23.10;59.30;;;;;;10310041;28;20022;-59
2023/06/28 01:48:45;;;;;;;2.58;1.40;;;23.00;59.20;;;;;;10321401;28;20027;-59
2023/06/28 01:53:46;;;;;;;2.00;1.45;;;23.10;59.30;;;;;;10319973;28;20022;-59
2023/06/28 01:58:46;;;;;;;2.13;1.15;;;23.00;59.40;;;;;;10320819;28;20023;-59
2023/06/28 02:03:47;;;;;;;2.15;1.10;;;23.00;59.40;;;;;;10322868;28;20503;-58
2023/06/28 02:08:48;;;;;;;1.77;0.95;;;23.00;59.50;;;;;;10320130;28;20089;-58
2023/06/28 02:13:48;;;;;;;1.67;1.17;;;23.00;59.50;;;;;;10320608;28;20490;-56
2023/06/28 02:18:49;;;;;;;2.17;1.50;;;23.00;59.50;;;;;;10321003;28;20716;-56
2023/06/28 02:23:50;;;;;;;2.00;1.10;;;23.00;59.50;;;;;;10320615;28;20109;-59
2023/06/28 02:28:51;;;;;;;2.60;1.27;;;23.00;59.50;;;;;;10320550;28;20764;-59
2023/06/28 02:33:51;;;;;;;2.10;1.40;;;23.00;59.60;;;;;;10320748;28;20076;-59
2023/06/28 02:38:52;;;;;;;4.25;1.67;;;23.00;59.60;;;;;;10318854;28;20057;-59
2023/06/28 02:43:53;;;;;;;1.88;1.30;;;23.00;59.60;;;;;;10293875;28;20050;-59
2023/06/28 02:48:53;;;;;;;2.55;1.20;;;23.00;59.60;;;;;;10318665;28;20114;-59
2023/06/28 02:53:54;;;;;;;2.40;1.20;;;23.00;59.60;;;;;;10318636;28;20189;-58
2023/06/28 02:58:54;;;;;;;1.60;0.90;;;23.00;59.50;;;;;;10319847;28;20049;-58
2023/06/28 03:03:55;;;;;;;1.75;1.05;;;23.00;59.40;;;;;;10320345;28;20710;-56
2023/06/28 03:08:56;;;;;;;2.75;1.65;;;22.90;59.30;;;;;;10320648;28;20161;-58
2023/06/28 03:13:56;;;;;;;1.45;1.05;;;22.90;59.20;;;;;;10324332;28;20044;-58
2023/06/28 03:18:57;;;;;;;2.88;1.75;;;22.90;59.20;;;;;;10326969;28;20046;-59
2023/06/28 03:23:58;;;;;;;3.17;1.33;;;22.90;59.20;;;;;;10325631;28;20521;-59
2023/06/28 03:28:58;;;;;;;2.03;1.20;;;22.90;59.10;;;;;;10328163;28;20057;-57
2023/06/28 03:33:59;;;;;;;2.25;1.35;;;22.90;59.20;;;;;;10326171;28;20109;-57
2023/06/28 03:39:00;;;;;;;1.67;1.33;;;22.90;59.10;;;;;;10323490;28;20050;-58
2023/06/28 03:44:00;;;;;;;4.57;1.52;;;22.90;59.40;;;;;;10327710;28;20026;-57
2023/06/28 03:49:02;;;;;;;4.32;1.33;;;22.90;60.00;;;;;;10327280;28;20132;-58
2023/06/28 03:54:03;;;;;;;2.20;1.27;;;23.00;59.70;;;;;;10327724;28;20158;-58
2023/06/28 03:59:04;;;;;;;3.03;1.30;;;23.00;60.00;;;;;;10327903;28;20026;-59
2023/06/28 04:04:04;;;;;;;3.13;1.30;;;23.00;59.70;;;;;;10322791;28;20530;-59
2023/06/28 04:09:05;;;;;;;3.47;1.83;;;23.00;59.80;;;;;;10321625;28;20624;-59
2023/06/28 04:14:06;;;;;;;5.85;1.77;;;23.00;60.10;;;;;;10327018;28;20109;-58
2023/06/28 04:19:06;;;;;;;3.22;1.52;;;22.90;59.40;;;;;;10325222;28;20018;-56
2023/06/28 04:24:07;;;;;;;4.97;1.60;;;22.90;59.40;;;;;;10325930;28;20022;-58
2023/06/28 04:29:08;;;;;;;5.55;1.30;;;22.90;59.40;;;;;;10314187;28;20033;-57
2023/06/28 04:34:08;;;;;;;1.77;1.00;;;22.90;59.40;;;;;;10314966;28;20054;-57
2023/06/28 04:39:09;;;;;;;3.30;1.35;;;22.90;59.40;;;;;;10325246;28;20045;-58
2023/06/28 04:44:10;;;;;;;3.00;1.45;;;22.90;59.50;;;;;;10325040;28;20022;-58
2023/06/28 04:49:11;;;;;;;3.05;2.20;;;22.80;59.50;;;;;;10325451;28;20062;-58
2023/06/28 04:54:11;;;;;;;3.53;1.75;;;22.80;59.50;;;;;;10325654;28;20022;-57
2023/06/28 04:59:12;;;;;;;3.28;1.52;;;22.80;59.50;;;;;;10324115;28;20430;-57
2023/06/28 05:04:13;;;;;;;5.45;1.30;;;22.80;59.50;;;;;;10323272;28;20053;-56
2023/06/28 05:09:13;;;;;;;3.38;1.42;;;22.80;59.50;;;;;;10324140;28;20048;-58
2023/06/28 05:14:14;;;;;;;3.67;1.50;;;22.80;59.50;;;;;;10318287;28;20030;-58
2023/06/28 05:19:14;;;;;;;4.95;1.73;;;22.90;60.60;;;;;;10319558;28;20022;-58
2023/06/28 05:24:17;;;;;;;8.02;1.98;;;22.90;59.80;;;;;;10325422;28;20058;-59
2023/06/28 05:29:19;;;;;;;17.20;2.28;;;23.00;60.70;;;;;;10315002;28;20113;-58
2023/06/28 05:34:19;;;;;;;10.18;2.75;;;23.00;61.00;;;;;;10325239;28;20018;-60
2023/06/28 05:39:20;;;;;;;7.00;1.88;;;23.00;60.60;;;;;;10323914;28;20074;-58
2023/06/28 05:44:21;;;;;;;9.98;2.65;;;23.10;60.90;;;;;;10325551;28;20142;-58
2023/06/28 05:49:21;;;;;;;13.10;2.17;;;23.00;60.70;;;;;;10324983;28;20027;-58
2023/06/28 05:54:22;;;;;;;10.00;2.20;;;23.00;60.90;;;;;;10325150;28;20025;-56
2023/06/28 05:59:23;;;;;;;16.55;2.88;;;23.00;60.90;;;;;;10324355;28;20056;-60
2023/06/28 06:04:24;;;;;;;11.60;3.35;;;22.90;61.30;;;;;;10323752;28;20022;-59
2023/06/28 06:09:25;;;;;;;9.63;2.08;;;22.90;60.50;;;;;;10323663;28;20121;-57
2023/06/28 06:14:26;;;;;;;16.70;2.75;;;22.90;60.50;;;;;;10323492;28;20034;-59
2023/06/28 06:19:27;;;;;;;11.43;2.45;;;22.90;61.00;;;;;;10323848;28;20027;-59
2023/06/28 06:24:27;;;;;;;10.10;2.20;;;22.80;60.80;;;;;;10324338;28;20689;-57
2023/06/28 06:29:28;;;;;;;11.18;3.15;;;22.80;60.80;;;;;;10324126;28;20062;-59
2023/06/28 06:34:29;;;;;;;8.90;2.80;;;22.80;60.80;;;;;;10324138;28;20022;-59
2023/06/28 06:39:29;;;;;;;8.00;2.70;;;22.80;60.80;;;;;;10323667;28;20125;-59
2023/06/28 06:44:30;;;;;;;6.57;3.22;;;22.70;60.80;;;;;;10327082;28;20126;-57
2023/06/28 06:49:31;;;;;;;13.02;2.53;;;22.70;60.90;;;;;;10331599;28;20037;-58
2023/06/28 06:54:32;;;;;;;12.18;2.42;;;22.70;61.10;;;;;;10329337;28;20050;-58
2023/06/28 06:59:33;;;;;;;9.82;2.88;;;22.70;61.10;;;;;;10329992;28;20026;-59
2023/06/28 07:04:33;;;;;;;13.02;2.83;;;22.70;60.90;;;;;;10331417;28;20046;-59
2023/06/28 07:09:34;;;;;;;12.93;3.03;;;22.80;61.80;;;;;;10331148;28;20034;-57
2023/06/28 07:14:35;;;;;;;9.20;2.78;;;22.80;61.40;;;;;;10319969;28;20094;-58
2023/06/28 07:19:36;;;;;;;9.02;2.35;;;22.80;60.90;;;;;;10321215;28;20094;-56
2023/06/28 07:24:36;;;;;;;5.45;2.60;;;22.80;61.00;;;;;;10330670;28;20418;-57
2023/06/28 07:29:37;;;;;;;5.13;2.15;;;22.80;61.10;;;;;;10330392;28;20768;-57
2023/06/28 07:34:38;;;;;;;6.20;2.38;;;22.80;61.20;;;;;;10330322;28;20117;-57
2023/06/28 07:39:38;;;;;;;7.25;2.47;;;22.80;61.30;;;;;;10323010;28;20093;-59
2023/06/28 07:44:39;;;;;;;14.25;3.72;;;22.80;61.70;;;;;;10324718;28;20050;-58
2023/06/28 07:49:40;;;;;;;13.02;3.25;;;22.80;62.00;;;;;;10327094;28;20027;-56
2023/06/28 07:54:43;;;;;;;13.48;3.83;;;22.80;62.30;;;;;;10308598;28;20030;-59
2023/06/28 07:59:43;;;;;;;10.80;3.40;;;22.80;61.20;;;;;;10327073;28;20497;-57
2023/06/28 08:04:44;;;;;;;11.90;3.60;;;22.80;61.70;;;;;;10324392;28;20029;-59
2023/06/28 08:09:45;;;;;;;12.98;3.53;;;22.70;62.00;;;;;;10323837;28;20161;-60
2023/06/28 08:14:45;;;;;;;8.10;3.45;;;22.70;62.00;;;;;;10315362;28;20026;-59
2023/06/28 08:19:46;;;;;;;13.43;3.63;;;22.70;61.60;;;;;;10324662;28;20097;-59
2023/06/28 08:24:48;;;;;;;13.00;4.47;;;22.70;62.00;;;;;;10318220;28;20108;-60
2023/06/28 08:29:49;;;;;;;19.63;4.63;;;22.70;61.80;;;;;;10324690;28;20089;-62
2023/06/28 08:34:49;;;;;;;12.82;3.50;;;22.70;61.90;;;;;;10320342;28;20469;-58
2023/06/28 08:39:50;;;;;;;14.90;4.25;;;22.70;62.50;;;;;;10290034;28;1050086;-58
2023/06/28 08:44:55;;;;;;;12.40;4.30;;;22.80;62.00;;;;;;10326374;28;20535;-59
2023/06/28 08:49:56;;;;;;;10.55;4.22;;;22.80;62.50;;;;;;10326096;28;20031;-58
2023/06/28 08:54:58;;;;;;;11.32;3.45;;;22.80;62.20;;;;;;10325675;28;20020;-59
2023/06/28 09:00:00;;;;;;;11.07;3.63;;;22.80;62.10;;;;;;10325799;28;20030;-57
2023/06/28 09:05:02;;;;;;;15.52;3.75;;;22.80;62.30;;;;;;10325553;28;20085;-58
2023/06/28 09:10:04;;;;;;;11.30;3.40;;;22.80;62.80;;;;;;10324830;28;20026;-57
2023/06/28 09:15:05;;;;;;;9.85;3.45;;;22.80;62.20;;;;;;10325148;28;20101;-59
2023/06/28 09:20:20;;;;;;;10.60;3.78;;;22.80;62.20;;;;;;10324647;28;20018;-58
2023/06/28 09:25:21;;;;;;;11.98;3.88;;;22.80;62.20;;;;;;10324900;28;20088;-59
2023/06/28 09:30:22;;;;;;;7.60;2.70;;;22.80;62.30;;;;;;10324712;28;20022;-58
2023/06/28 09:35:23;;;;;;;9.68;3.10;;;22.70;62.20;;;;;;10311845;28;20042;-59
2023/06/28 09:40:24;;;;;;;6.65;3.60;;;22.70;61.80;;;;;;10324296;28;20014;-58
2023/06/28 09:45:26;;;;;;;7.88;3.60;;;22.70;61.70;;;;;;10323768;28;20492;-58
2023/06/28 09:50:46;;;;;;;7.68;3.58;;;22.70;62.00;;;;;;10325232;28;20038;-58
2023/06/28 09:55:49;;;;;;;7.30;3.22;;;22.70;61.90;;;;;;10323404;28;20037;-58
2023/06/28 10:00:50;;;;;;;8.48;3.40;;;22.70;62.20;;;;;;10323520;28;20524;-56
2023/06/28 10:05:56;;;;;;;6.30;2.70;;;22.70;62.10;;;;;;10323179;28;20025;-58
2023/06/28 10:10:57;;;;;;;11.10;3.17;;;22.70;61.80;;;;;;10321215;28;20077;-59
2023/06/28 10:16:10;;;;;;;6.55;2.78;;;22.70;63.20;;;;;;10324248;28;20581;-58
2023/06/28 10:21:11;;;;;;;7.05;3.80;;;22.80;63.30;;;;;;10313775;28;20430;-59
2023/06/28 10:26:13;;;;;;;5.60;2.97;;;22.80;63.40;;;;;;10322763;28;20028;-59
2023/06/28 10:31:15;;;;;;;5.80;3.90;;;22.80;63.30;;;;;;10315654;28;20014;-58
2023/06/28 10:36:16;;;;;;;8.20;3.72;;;22.80;62.90;;;;;;10322507;28;20034;-58
2023/06/28 10:41:18;;;;;;;13.63;3.50;;;22.80;62.80;;;;;;10322634;28;20116;-59
2023/06/28 10:46:23;;;;;;;9.23;3.17;;;23.10;62.20;;;;;;10322057;28;20045;-59
2023/06/28 10:51:32;;;;;;;13.27;3.47;;;23.10;62.20;;;;;;10322332;28;20026;-58
2023/06/28 10:56:50;;;;;;;14.82;3.75;;;23.00;63.00;;;;;;10322572;28;20462;-59
2023/06/28 11:01:55;;;;;;;6.88;2.90;;;23.00;63.10;;;;;;10323599;28;20022;-57
2023/06/28 11:07:20;;;;;;;8.32;3.50;;;23.00;63.20;;;;;;10320839;28;20077;-60
2023/06/28 11:12:20;;;;;;;6.15;2.97;;;23.00;62.90;;;;;;10321093;28;20308;-59
2023/06/28 11:17:21;;;;;;;8.25;3.80;;;23.00;63.60;;;;;;10321581;28;20476;-56
2023/06/28 11:22:22;;;;;;;12.25;3.25;;;23.00;62.90;;;;;;10323365;28;20034;-59
2023/06/28 11:27:23;;;;;;;9.05;3.35;;;23.00;62.90;;;;;;10322884;28;20038;-59
2023/06/28 11:32:31;;;;;;;7.28;3.08;;;23.00;62.90;;;;;;10327566;28;20061;-59
2023/06/28 11:37:32;;;;;;;6.65;3.08;;;23.00;62.90;;;;;;10318229;28;20057;-59
2023/06/28 11:42:34;;;;;;;9.75;3.33;;;23.00;62.80;;;;;;10327452;28;20018;-60
2023/06/28 11:47:35;;;;;;;6.82;3.25;;;23.00;62.80;;;;;;10328189;28;20022;-59
2023/06/28 11:52:35;;;;;;;8.05;3.35;;;23.00;62.90;;;;;;10328620;28;20023;-60
2023/06/28 11:57:46;;;;;;;9.73;3.65;;;23.00;62.90;;;;;;10327060;28;20030;-59
2023/06/28 12:02:52;;;;;;;9.88;2.95;;;23.00;63.00;;;;;;10327890;28;20359;-58
2023/06/28 12:07:56;;;;;;;8.27;3.45;;;23.00;63.00;;;;;;10311812;28;20478;-59
2023/06/28 12:12:57;;;;;;;7.50;3.28;;;23.00;62.90;;;;;;10327577;28;20019;-58
2023/06/28 12:17:58;;;;;;;17.02;3.97;;;23.00;62.90;;;;;;10328588;28;20474;-58
2023/06/28 12:22:58;;;;;;;8.70;3.50;;;23.10;63.40;;;;;;10327823;28;20446;-59
2023/06/28 12:28:03;;;;;;;12.55;4.05;;;23.20;63.30;;;;;;10325775;28;20049;-58
2023/06/28 12:33:08;;;;;;;9.00;3.53;;;23.20;63.40;;;;;;10321741;28;20084;-59
2023/06/28 12:38:16;;;;;;;9.85;3.53;;;23.20;63.60;;;;;;10326607;28;20056;-58
2023/06/28 12:43:23;;;;;;;9.77;4.18;;;23.10;63.90;;;;;;10325392;28;20347;-59
2023/06/28 12:48:24;;;;;;;17.15;4.82;;;23.20;64.10;;;;;;10325810;28;20481;-58
2023/06/28 12:53:24;;;;;;;25.50;4.88;;;23.20;64.20;;;;;;10327295;28;20019;-60
2023/06/28 12:58:25;;;;;;;20.08;5.45;;;23.20;64.20;;;;;;10326988;28;20520;-56
2023/06/28 13:03:26;;;;;;;17.02;5.10;;;23.20;64.00;;;;;;10324572;28;20044;-56
2023/06/28 13:08:29;;;;;;;26.55;5.55;;;23.20;63.70;;;;;;10324377;28;20427;-60
2023/06/28 13:13:30;;;;;;;9.43;4.63;;;23.10;63.70;;;;;;10324294;28;20022;-56
2023/06/28 13:18:30;;;;;;;13.45;4.28;;;23.10;63.60;;;;;;10324031;28;20516;-58
2023/06/28 13:23:31;;;;;;;9.93;4.63;;;23.10;63.50;;;;;;10319610;28;20101;-58
2023/06/28 13:28:32;;;;;;;10.82;3.70;;;23.10;63.70;;;;;;10323800;28;20101;-57
2023/06/28 13:33:32;;;;;;;12.10;4.80;;;23.10;63.60;;;;;;10323660;28;20037;-59
2023/06/28 13:38:33;;;;;;;8.43;3.80;;;23.10;63.50;;;;;;10323329;28;20409;-57
2023/06/28 13:43:34;;;;;;;8.40;4.82;;;23.10;63.20;;;;;;10322063;28;20571;-59
2023/06/28 13:48:35;;;;;;;9.98;4.80;;;23.20;63.40;;;;;;10323150;28;20058;-56
2023/06/28 13:53:36;;;;;;;9.73;5.00;;;23.10;63.30;;;;;;10320816;28;20022;-57
2023/06/28 13:58:37;;;;;;;11.95;4.70;;;23.10;63.90;;;;;;10323262;28;20112;-58
2023/06/28 14:03:38;;;;;;;17.83;5.88;;;23.10;64.40;;;;;;10323137;28;20530;-59
2023/06/28 14:08:38;;;;;;;19.55;6.25;;;23.20;64.10;;;;;;10324490;28;20030;-59
2023/06/28 14:13:39;;;;;;;20.55;6.07;;;23.20;63.90;;;;;;10324416;28;20373;-60
2023/06/28 14:18:40;;;;;;;22.30;5.03;;;23.20;65.00;;;;;;10324628;28;20023;-60
2023/06/28 14:23:40;;;;;;;19.15;5.53;;;23.30;65.10;;;;;;10324377;28;20057;-59
2023/06/28 14:28:41;;;;;;;21.00;6.85;;;23.30;65.00;;;;;;10320523;28;20038;-60
2023/06/28 14:33:48;;;;;;;26.92;7.03;;;23.30;65.00;;;;;;10322137;28;20022;-59
2023/06/28 14:38:49;;;;;;;25.73;7.63;;;23.20;65.00;;;;;;10323693;28;20620;-59
2023/06/28 14:43:49;;;;;;;31.55;7.68;;;23.10;65.40;;;;;;10323613;28;20101;-57
2023/06/28 14:48:50;;;;;;;16.58;6.40;;;23.10;65.50;;;;;;10306420;28;20040;-57
2023/06/28 14:53:51;;;;;;;14.20;7.45;;;23.00;65.40;;;;;;10322050;28;20106;-58
2023/06/28 14:58:51;;;;;;;23.25;7.85;;;23.00;65.50;;;;;;10322487;28;20049;-59
2023/06/28 15:03:52;;;;;;;14.73;7.63;;;23.00;66.40;;;;;;10321472;28;20040;-57
2023/06/28 15:08:53;;;;;;;34.17;8.75;;;23.00;65.80;;;;;;10329786;28;20118;-59
2023/06/28 15:13:54;;;;;;;23.48;7.07;;;23.10;66.30;;;;;;10326248;28;20477;-59
2023/06/28 15:18:55;;;;;;;22.42;7.50;;;23.10;66.30;;;;;;10327553;28;20102;-58
2023/06/28 15:23:57;;;;;;;22.42;9.02;;;23.10;65.90;;;;;;10317212;28;20466;-59
2023/06/28 15:28:58;;;;;;;55.75;25.58;;;23.10;66.60;;;;;;10330686;28;20362;-60
2023/06/28 15:33:59;;;;;;;24.88;13.85;;;23.20;67.40;;;;;;10321872;28;20073;-58
2023/06/28 15:38:59;;;;;;;28.08;14.15;;;23.50;69.10;;;;;;10329956;28;20505;-59
2023/06/28 15:44:00;;;;;;;31.48;15.85;;;23.50;66.70;;;;;;10320056;28;20362;-57
2023/06/28 15:49:02;;;;;;;35.25;19.08;;;23.50;73.20;;;;;;10312202;28;20144;-55
2023/06/28 15:54:03;;;;;;;50.60;34.95;;;23.50;70.20;;;;;;10328583;28;20022;-55
2023/06/28 15:59:04;;;;;;;48.15;29.38;;;23.50;70.10;;;;;;10329763;28;20210;-57
2023/06/28 16:04:05;;;;;;;34.55;26.38;;;23.50;69.20;;;;;;10328259;28;20109;-55
2023/06/28 16:09:05;;;;;;;38.70;28.60;;;23.50;68.80;;;;;;10328308;28;20106;-56
2023/06/28 16:14:08;;;;;;;31.73;24.00;;;23.50;68.50;;;;;;10328215;28;20026;-56
2023/06/28 16:19:09;;;;;;;33.50;24.95;;;23.40;68.50;;;;;;10327084;28;20022;-55
2023/06/28 16:24:10;;;;;;;34.80;23.52;;;23.40;68.50;;;;;;10316178;28;20029;-56
2023/06/28 16:29:11;;;;;;;34.63;23.17;;;23.40;68.90;;;;;;10325903;28;20535;-57
2023/06/28 16:34:11;;;;;;;28.38;22.20;;;23.40;68.90;;;;;;10327230;28;20622;-56
2023/06/28 16:39:12;;;;;;;38.00;20.23;;;23.30;68.70;;;;;;10319056;28;20670;-56
2023/06/28 16:44:13;;;;;;;34.40;21.30;;;23.20;68.70;;;;;;10327562;28;20521;-57
2023/06/28 16:49:13;;;;;;;38.25;20.85;;;23.20;68.60;;;;;;10321520;28;20030;-58
2023/06/28 16:54:14;;;;;;;32.00;21.00;;;23.20;68.60;;;;;;10327014;28;20022;-57
2023/06/28 16:59:16;;;;;;;26.65;18.10;;;23.10;68.10;;;;;;10310295;28;20022;-56
2023/06/28 17:04:17;;;;;;;33.90;18.15;;;23.10;68.20;;;;;;10323422;28;20030;-56
2023/06/28 17:09:17;;;;;;;33.88;19.17;;;23.20;68.70;;;;;;10324136;28;20058;-56
2023/06/28 17:14:18;;;;;;;27.02;18.38;;;23.10;67.90;;;;;;10313041;28;20027;-56
2023/06/28 17:19:19;;;;;;;29.38;17.25;;;23.10;68.00;;;;;;10323591;28;20050;-58
2023/06/28 17:24:19;;;;;;;23.27;16.95;;;23.10;67.90;;;;;;10307717;28;20085;-57
2023/06/28 17:29:20;;;;;;;23.38;17.33;;;23.10;68.00;;;;;;10325385;28;20034;-57
2023/06/28 17:34:21;;;;;;;24.52;16.63;;;23.10;67.90;;;;;;10324575;28;20073;-57
2023/06/28 17:39:21;;;;;;;27.17;17.30;;;23.10;67.80;;;;;;10325312;28;20265;-56
2023/06/28 17:44:22;;;;;;;21.02;16.88;;;23.10;67.80;;;;;;10323851;28;20113;-55
2023/06/28 17:49:23;;;;;;;21.50;16.30;;;23.10;67.70;;;;;;10323601;28;20125;-57
2023/06/28 17:54:23;;;;;;;20.83;15.45;;;23.00;67.60;;;;;;10323881;28;20034;-56
2023/06/28 17:59:24;;;;;;;32.10;18.00;;;23.10;67.60;;;;;;10323622;28;20110;-57
2023/06/28 18:04:25;;;;;;;22.35;16.52;;;23.10;67.50;;;;;;10319710;28;20022;-57
2023/06/28 18:09:25;;;;;;;21.30;14.50;;;23.10;67.40;;;;;;10322257;28;20125;-59
2023/06/28 18:14:26;;;;;;;25.70;15.50;;;23.10;67.50;;;;;;10335930;28;20097;-58
2023/06/28 18:19:27;;;;;;;25.63;17.23;;;23.10;67.70;;;;;;10333510;28;20053;-57
2023/06/28 18:24:27;;;;;;;24.63;15.40;;;23.10;67.70;;;;;;10315967;28;20022;-56
2023/06/28 18:29:29;;;;;;;24.83;15.32;;;23.10;67.80;;;;;;10305231;28;20125;-57
2023/06/28 18:34:29;;;;;;;23.58;16.00;;;23.10;67.60;;;;;;10321079;28;20101;-59
2023/06/28 18:39:30;;;;;;;23.25;13.95;;;23.10;67.60;;;;;;10325413;28;20050;-61
2023/06/28 18:44:31;;;;;;;23.75;15.75;;;23.10;67.70;;;;;;10330909;28;20097;-59
2023/06/28 18:49:32;;;;;;;21.20;15.50;;;23.20;67.60;;;;;;10329934;28;20085;-56
2023/06/28 18:54:32;;;;;;;22.70;16.25;;;23.20;67.50;;;;;;10331440;28;20026;-57
2023/06/28 18:59:33;;;;;;;24.95;15.35;;;23.20;67.40;;;;;;10327281;28;20058;-56
2023/06/28 19:04:36;;;;;;;23.38;15.50;;;23.10;67.20;;;;;;10344417;28;20113;-55
2023/06/28 19:09:38;;;;;;;24.83;14.55;;;23.10;67.20;;;;;;10311950;28;20485;-56
2023/06/28 19:14:40;;;;;;;22.80;13.70;;;23.10;67.40;;;;;;10327870;28;20021;-57
2023/06/28 19:19:41;;;;;;;22.63;14.13;;;23.10;67.50;;;;;;10329238;28;20025;-57
2023/06/28 19:24:42;;;;;;;23.35;14.45;;;23.10;67.60;;;;;;10328292;28;20025;-56
2023/06/28 19:29:42;;;;;;;18.90;13.18;;;23.10;67.60;;;;;;10329048;28;20052;-57
2023/06/28 19:34:43;;;;;;;20.02;14.55;;;23.10;67.70;;;;;;10325185;28;20025;-57
2023/06/28 19:39:44;;;;;;;24.20;13.88;;;23.00;67.60;;;;;;10329008;28;20142;-57
2023/06/28 19:44:46;;;;;;;23.30;16.25;;;23.00;67.80;;;;;;10320242;28;20030;-57
2023/06/28 19:49:47;;;;;;;26.70;16.45;;;23.10;68.20;;;;;;10323059;28;20097;-54
2023/06/28 19:54:48;;;;;;;23.73;15.02;;;23.10;67.70;;;;;;10328905;28;20025;-57
2023/06/28 19:59:48;;;;;;;16.20;13.73;;;23.10;67.60;;;;;;10329376;28;20125;-57
2023/06/28 20:04:49;;;;;;;20.75;13.50;;;23.00;67.50;;;;;;10311879;28;20073;-54
2023/06/28 20:09:50;;;;;;;21.83;13.43;;;23.00;67.60;;;;;;10327449;28;20039;-55
2023/06/28 20:14:51;;;;;;;18.63;13.10;;;23.00;67.60;;;;;;10327588;28;20058;-57
2023/06/28 20:19:52;;;;;;;21.25;15.02;;;23.00;67.70;;;;;;10328785;28;20149;-57
2023/06/28 20:24:52;;;;;;;18.45;14.18;;;23.00;67.50;;;;;;10327872;28;20018;-57
2023/06/28 20:29:55;;;;;;;18.30;14.15;;;23.00;67.50;;;;;;10321868;28;20027;-58
2023/06/28 20:34:57;;;;;;;16.30;12.50;;;23.00;67.50;;;;;;10328287;28;20019;-59
2023/06/28 20:40:00;;;;;;;17.73;12.82;;;22.90;67.50;;;;;;10326356;28;20154;-58
2023/06/28 20:45:01;;;;;;;20.90;12.23;;;22.90;67.40;;;;;;10327308;28;20033;-58
2023/06/28 20:50:02;;;;;;;14.40;11.25;;;22.90;67.40;;;;;;10326087;28;20125;-59
2023/06/28 20:55:03;;;;;;;19.05;13.23;;;23.00;67.50;;;;;;10326921;28;20007;-59
2023/06/28 21:00:14;;;;;;;15.75;11.68;;;22.90;67.40;;;;;;10327158;28;20026;-56
2023/06/28 21:05:15;;;;;;;15.35;11.05;;;22.90;67.30;;;;;;10325915;28;20054;-59
2023/06/28 21:10:16;;;;;;;16.38;11.95;;;22.90;67.30;;;;;;10326585;28;20037;-59
2023/06/28 21:15:17;;;;;;;16.77;12.38;;;22.90;67.20;;;;;;10325177;28;20026;-56
2023/06/28 21:20:17;;;;;;;15.85;11.77;;;22.90;67.20;;;;;;10326015;28;20038;-57
2023/06/28 21:25:18;;;;;;;14.32;10.52;;;22.90;67.30;;;;;;10326182;28;20109;-58
2023/06/28 21:30:19;;;;;;;13.50;11.98;;;22.90;67.30;;;;;;10324638;28;20034;-58
2023/06/28 21:35:20;;;;;;;17.35;11.90;;;22.90;67.20;;;;;;10323930;28;20441;-59
2023/06/28 21:40:21;;;;;;;13.40;10.85;;;22.80;67.10;;;;;;10325643;28;20765;-58
2023/06/28 21:45:21;;;;;;;15.93;10.52;;;22.80;67.10;;;;;;10325298;28;20082;-58
2023/06/28 21:50:22;;;;;;;14.75;10.90;;;22.90;67.10;;;;;;10323721;28;20078;-57
2023/06/28 21:55:23;;;;;;;13.70;10.85;;;22.90;67.10;;;;;;10323895;28;20026;-59
2023/06/28 22:00:27;;;;;;;12.50;10.73;;;22.80;67.10;;;;;;10307151;28;20076;-58
2023/06/28 22:05:28;;;;;;;14.05;10.18;;;22.80;67.00;;;;;;10323209;28;20034;-59
2023/06/28 22:10:29;;;;;;;12.45;10.18;;;22.80;66.90;;;;;;10324340;28;20035;-56
2023/06/28 22:15:34;;;;;;;11.90;9.88;;;22.80;66.90;;;;;;10324259;28;20453;-59
2023/06/28 22:20:38;;;;;;;11.43;9.25;;;22.80;66.90;;;;;;10324533;28;20105;-58
2023/06/28 22:25:40;;;;;;;13.40;9.18;;;22.80;66.80;;;;;;10321920;28;20026;-58
2023/06/28 22:30:41;;;;;;;12.30;9.25;;;22.80;66.80;;;;;;10321387;28;20023;-59
2023/06/28 22:35:41;;;;;;;13.43;9.93;;;22.80;66.80;;;;;;10323401;28;20446;-58
2023/06/28 22:40:42;;;;;;;12.93;9.43;;;22.80;66.80;;;;;;10306433;28;20104;-57
2023/06/28 22:45:43;;;;;;;12.57;9.18;;;22.80;66.80;;;;;;10323741;28;20309;-57
2023/06/28 22:50:46;;;;;;;12.10;9.30;;;22.80;66.80;;;;;;10322197;28;20062;-59
2023/06/28 22:55:48;;;;;;;11.27;9.48;;;22.80;66.80;;;;;;10322398;28;20030;-57
2023/06/28 23:00:54;;;;;;;13.85;10.07;;;22.80;66.70;;;;;;10318033;28;20018;-57
2023/06/28 23:05:57;;;;;;;11.68;10.32;;;22.80;66.70;;;;;;10323326;28;20073;-58
2023/06/28 23:10:58;;;;;;;11.18;8.52;;;22.80;66.70;;;;;;10322862;28;20074;-57
2023/06/28 23:16:00;;;;;;;11.07;9.02;;;22.70;66.60;;;;;;10323672;28;20110;-58
2023/06/28 23:21:01;;;;;;;10.90;9.77;;;22.80;66.70;;;;;;10323105;28;20054;-58
2023/06/28 23:26:01;;;;;;;11.88;9.50;;;22.70;66.60;;;;;;10324035;28;20101;-58
2023/06/28 23:31:02;;;;;;;12.02;9.55;;;22.70;66.50;;;;;;10330399;28;20061;-58
2023/06/28 23:36:03;;;;;;;9.57;7.93;;;22.80;66.60;;;;;;10328537;28;20158;-58
2023/06/28 23:41:07;;;;;;;11.18;9.57;;;22.70;66.60;;;;;;10330326;28;20030;-58
2023/06/28 23:46:10;;;;;;;10.20;8.90;;;22.70;66.50;;;;;;10329550;28;20061;-58
2023/06/28 23:51:11;;;;;;;13.20;9.20;;;22.70;66.40;;;;;;10309880;28;20034;-58
2023/06/28 23:56:12;;;;;;;11.43;9.10;;;22.70;66.40;;;;;;10326665;28;20045;-58
